createdAt,value
2018-09-13T00:02:27.018Z,17.80
2018-09-13T00:04:55.485Z,14.17
2018-09-13T00:07:23.990Z,16.30
2018-09-13T00:09:52.601Z,16.07
2018-09-13T00:12:21.064Z,13.00
2018-09-13T00:14:49.589Z,16.83
2018-09-13T00:17:18.113Z,17.13
2018-09-13T00:19:48.127Z,15.03
2018-09-13T00:22:16.638Z,14.93
2018-09-13T00:24:45.368Z,15.13
2018-09-13T00:27:13.813Z,16.47
2018-09-13T00:29:42.352Z,15.80
2018-09-13T00:32:10.848Z,14.33
2018-09-13T00:34:39.399Z,15.73
2018-09-13T00:37:08.000Z,16.40
2018-09-13T00:39:36.476Z,14.93
2018-09-13T00:42:05.008Z,13.67
2018-09-13T00:44:33.555Z,16.57
2018-09-13T00:47:02.065Z,17.57
2018-09-13T00:49:30.553Z,16.73
2018-09-13T00:51:59.087Z,15.13
2018-09-13T00:54:27.593Z,14.70
2018-09-13T00:56:56.058Z,16.63
2018-09-13T00:59:25.263Z,19.07
2018-09-13T01:01:54.713Z,20.30
2018-09-13T01:04:23.206Z,18.00
2018-09-13T01:06:51.684Z,16.17
2018-09-13T01:09:21.092Z,17.77
2018-09-13T01:11:49.540Z,16.97
2018-09-13T01:14:18.105Z,17.70
2018-09-13T01:16:47.549Z,15.07
2018-09-13T01:19:16.108Z,16.13
2018-09-13T01:21:44.587Z,17.97
2018-09-13T01:24:13.095Z,15.10
2018-09-13T01:26:41.596Z,21.67
2018-09-13T01:29:10.613Z,23.33
2018-09-13T01:31:39.283Z,18.57
2018-09-13T01:34:07.736Z,16.80
2018-09-13T01:36:37.004Z,17.47
2018-09-13T01:39:08.185Z,18.83
2018-09-13T01:41:36.858Z,14.30
2018-09-13T01:44:05.554Z,19.33
2018-09-13T01:46:34.130Z,17.63
2018-09-13T01:49:03.557Z,18.67
2018-09-13T01:51:32.055Z,20.07
2018-09-13T01:54:00.568Z,17.00
2018-09-13T01:56:29.108Z,17.30
2018-09-13T01:58:58.137Z,17.23
2018-09-13T02:01:26.644Z,16.43
2018-09-13T02:03:55.514Z,20.00
2018-09-13T02:06:23.949Z,17.57
2018-09-13T02:08:52.432Z,19.90
2018-09-13T02:11:21.034Z,16.73
2018-09-13T02:13:50.065Z,19.63
2018-09-13T02:16:18.570Z,17.83
2018-09-13T02:18:47.140Z,16.20
2018-09-13T02:21:15.695Z,17.97
2018-09-13T02:23:44.735Z,19.10
2018-09-13T02:26:13.499Z,20.30
2018-09-13T02:28:42.296Z,22.20
2018-09-13T02:31:10.765Z,20.70
2018-09-13T02:33:39.282Z,17.30
2018-09-13T02:36:07.776Z,17.47
2018-09-13T02:38:36.261Z,16.30
2018-09-13T02:41:04.807Z,19.53
2018-09-13T02:43:33.304Z,20.03
2018-09-13T02:46:01.928Z,17.63
2018-09-13T02:48:30.450Z,17.37
2018-09-13T02:50:59.430Z,15.93
2018-09-13T02:53:27.927Z,19.90
2018-09-13T02:55:57.049Z,16.77
2018-09-13T02:58:25.592Z,17.53
2018-09-13T03:00:54.112Z,17.77
2018-09-13T03:03:22.579Z,17.57
2018-09-13T03:05:51.187Z,15.90
2018-09-13T03:08:19.762Z,16.20
2018-09-13T03:10:48.235Z,17.03
2018-09-13T03:13:16.743Z,16.03
2018-09-13T03:15:45.814Z,14.30
2018-09-13T03:18:14.370Z,17.00
2018-09-13T03:20:43.622Z,17.03
2018-09-13T03:23:12.145Z,16.27
2018-09-13T03:25:40.667Z,17.70
2018-09-13T03:28:09.194Z,18.13
2018-09-13T03:30:38.315Z,17.07
2018-09-13T03:33:07.000Z,15.90
2018-09-13T03:35:35.531Z,14.13
2018-09-13T03:38:04.109Z,15.53
2018-09-13T03:40:32.575Z,18.80
2018-09-13T03:43:01.147Z,16.97
2018-09-13T03:45:29.695Z,17.00
2018-09-13T03:47:58.260Z,16.90
2018-09-13T03:50:26.791Z,19.60
2018-09-13T03:52:55.299Z,19.23
2018-09-13T03:55:23.800Z,16.47
2018-09-13T03:57:52.329Z,15.80
2018-09-13T04:00:20.935Z,17.80
2018-09-13T04:02:49.520Z,18.83
2018-09-13T04:05:18.062Z,17.60
2018-09-13T04:07:46.526Z,18.07
2018-09-13T04:10:14.995Z,17.13
2018-09-13T04:12:43.568Z,17.37
2018-09-13T04:15:12.050Z,14.63
2018-09-13T04:17:40.543Z,16.47
2018-09-13T04:20:09.156Z,15.03
2018-09-13T04:22:37.705Z,15.90
2018-09-13T04:25:06.227Z,16.83
2018-09-13T04:27:34.687Z,18.00
2018-09-13T04:30:03.199Z,16.30
2018-09-13T04:32:31.741Z,16.80
2018-09-13T04:35:00.253Z,16.20
2018-09-13T04:37:28.832Z,16.63
2018-09-13T04:39:57.510Z,18.23
2018-09-13T04:42:26.069Z,16.77
2018-09-13T04:44:54.569Z,18.70
2018-09-13T04:47:23.704Z,18.53
2018-09-13T04:49:52.244Z,16.37
2018-09-13T04:52:20.816Z,16.63
2018-09-13T04:54:49.327Z,17.00
2018-09-13T04:57:17.867Z,14.97
2018-09-13T04:59:46.465Z,18.17
2018-09-13T05:02:15.597Z,15.73
2018-09-13T05:04:44.108Z,16.60
2018-09-13T05:07:13.447Z,16.90
2018-09-13T05:09:41.958Z,17.40
2018-09-13T05:12:10.504Z,19.07
2018-09-13T05:14:39.002Z,20.53
2018-09-13T05:17:07.592Z,17.57
2018-09-13T05:19:36.085Z,15.77
2018-09-13T05:22:04.648Z,15.70
2018-09-13T05:24:33.126Z,18.77
2018-09-13T05:27:01.645Z,16.87
2018-09-13T05:29:30.144Z,18.57
2018-09-13T05:31:58.633Z,18.77
2018-09-13T05:34:27.613Z,16.87
2018-09-13T05:36:56.936Z,17.50
2018-09-13T05:39:25.459Z,17.33
2018-09-13T05:41:54.036Z,19.97
2018-09-13T05:44:22.497Z,16.73
2018-09-13T05:46:51.056Z,19.47
2018-09-13T05:49:19.561Z,18.93
2018-09-13T05:51:48.092Z,20.17
2018-09-13T05:54:16.612Z,22.53
2018-09-13T05:56:47.854Z,19.60
2018-09-13T05:59:17.513Z,22.97
2018-09-13T06:01:46.422Z,25.43
2018-09-13T06:04:14.941Z,20.97
2018-09-13T06:06:43.427Z,19.13
2018-09-13T06:09:11.885Z,17.63
2018-09-13T06:11:40.392Z,20.20
2018-09-13T06:14:08.877Z,20.33
2018-09-13T06:16:37.725Z,22.53
2018-09-13T06:19:06.300Z,22.50
2018-09-13T06:21:34.765Z,21.00
2018-09-13T06:24:03.504Z,19.40
2018-09-13T06:26:32.074Z,19.67
2018-09-13T06:29:00.562Z,20.70
2018-09-13T06:31:29.075Z,20.00
2018-09-13T06:33:57.597Z,19.97
2018-09-13T06:36:26.137Z,19.73
2018-09-13T06:38:54.637Z,27.17
2018-09-13T06:41:23.101Z,25.80
2018-09-13T06:43:51.744Z,26.23
2018-09-13T06:46:20.256Z,24.10
2018-09-13T06:48:48.811Z,22.93
2018-09-13T06:51:17.364Z,23.20
2018-09-13T06:53:46.483Z,20.50
2018-09-13T06:56:14.980Z,27.80
2018-09-13T06:58:43.523Z,29.70
2018-09-13T07:01:12.772Z,31.67
2018-09-13T07:03:41.564Z,34.80
2018-09-13T07:06:10.077Z,38.40
2018-09-13T07:08:39.239Z,37.00
2018-09-13T07:11:07.806Z,31.23
2018-09-13T07:13:36.462Z,29.83
2018-09-13T07:16:05.544Z,27.00
2018-09-13T07:18:34.075Z,31.70
2018-09-13T07:21:03.481Z,30.03
2018-09-13T07:23:32.019Z,26.03
2018-09-13T07:26:00.436Z,32.53
2018-09-13T07:28:28.981Z,31.60
2018-09-13T07:30:57.634Z,27.07
2018-09-13T07:33:26.775Z,31.17
2018-09-13T07:35:55.249Z,32.33
2018-09-13T07:38:24.606Z,35.50
2018-09-13T07:40:53.734Z,34.40
2018-09-13T07:43:22.351Z,29.47
2018-09-13T07:45:50.995Z,30.30
2018-09-13T07:48:20.436Z,30.30
2018-09-13T07:50:48.926Z,27.40
2018-09-13T07:53:17.488Z,25.03
2018-09-13T07:55:46.033Z,25.20
2018-09-13T07:58:14.609Z,27.63
2018-09-13T08:00:43.126Z,24.57
2018-09-13T08:03:12.346Z,24.87
2018-09-13T08:05:41.578Z,22.57
2018-09-13T08:08:10.137Z,69.30
2018-09-13T08:10:38.701Z,46.10
2018-09-13T08:13:07.270Z,65.53
2018-09-13T08:15:35.831Z,110.07
2018-09-13T08:18:04.544Z,49.03
2018-09-13T08:20:33.332Z,23.33
2018-09-13T08:23:02.503Z,29.33
2018-09-13T08:25:31.521Z,25.27
2018-09-13T08:28:00.177Z,29.37
2018-09-13T08:30:28.692Z,16.77
2018-09-13T08:32:58.413Z,19.70
2018-09-13T08:35:27.941Z,20.37
2018-09-13T08:37:57.198Z,16.77
2018-09-13T08:40:25.795Z,18.73
2018-09-13T08:42:54.447Z,19.00
2018-09-13T08:45:23.164Z,18.47
2018-09-13T08:47:52.389Z,21.53
2018-09-13T08:50:20.921Z,18.83
2018-09-13T08:52:50.373Z,21.43
2018-09-13T08:55:19.081Z,18.43
2018-09-13T08:57:47.654Z,22.97
2018-09-13T09:00:16.211Z,46.03
2018-09-13T09:02:44.687Z,21.63
2018-09-13T09:05:13.400Z,21.07
2018-09-13T09:07:42.170Z,29.83
2018-09-13T09:10:10.649Z,29.90
2018-09-13T09:12:39.132Z,19.10
2018-09-13T09:15:07.632Z,25.60
2018-09-13T09:17:36.251Z,22.23
2018-09-13T09:20:04.877Z,19.90
2018-09-13T09:22:33.404Z,24.60
2018-09-13T09:25:02.557Z,21.30
2018-09-13T09:27:31.175Z,21.47
2018-09-13T09:29:59.721Z,25.23
2018-09-13T09:32:28.769Z,24.10
2018-09-13T09:34:57.315Z,27.27
2018-09-13T09:37:26.999Z,24.93
2018-09-13T09:39:55.540Z,25.70
2018-09-13T09:42:24.903Z,22.83
2018-09-13T09:44:55.057Z,24.13
2018-09-13T09:47:23.556Z,20.80
2018-09-13T09:49:52.168Z,17.57
2018-09-13T09:52:21.619Z,18.13
2018-09-13T09:54:50.088Z,17.43
2018-09-13T09:57:18.641Z,17.07
2018-09-13T09:59:47.244Z,13.47
2018-09-13T10:02:21.831Z,16.87
2018-09-13T10:04:50.696Z,15.13
2018-09-13T10:07:20.632Z,13.47
2018-09-13T10:09:49.606Z,17.13
2018-09-13T10:12:18.163Z,18.90
2018-09-13T10:14:51.991Z,16.03
2018-09-13T10:17:25.899Z,17.63
2018-09-13T10:19:59.652Z,17.90
2018-09-13T10:22:33.512Z,16.83
2018-09-13T10:25:08.066Z,18.93
2018-09-13T10:27:42.708Z,18.23
2018-09-13T10:30:16.506Z,23.40
2018-09-13T10:32:50.233Z,17.63
2018-09-13T10:35:23.963Z,18.37
2018-09-13T10:37:58.645Z,22.50
2018-09-13T10:40:32.562Z,19.30
2018-09-13T10:43:06.395Z,18.77
2018-09-13T10:45:40.804Z,19.83
2018-09-13T10:48:14.975Z,19.77
2018-09-13T10:52:50.608Z,21.17
2018-09-13T10:55:20.114Z,16.67
2018-09-13T10:57:48.920Z,18.50
2018-09-13T11:00:17.472Z,16.00
2018-09-13T11:02:46.116Z,14.23
2018-09-13T11:05:14.858Z,16.30
2018-09-13T11:07:43.499Z,16.63
2018-09-13T11:10:12.058Z,16.43
2018-09-13T11:12:45.729Z,19.60
2018-09-13T11:15:24.152Z,15.83
2018-09-13T11:17:54.456Z,19.37
2018-09-13T11:20:22.958Z,19.07
2018-09-13T11:22:54.509Z,13.97
2018-09-13T11:25:54.021Z,13.07
2018-09-13T11:28:22.561Z,14.50
2018-09-13T11:30:56.205Z,18.80
2018-09-13T11:33:24.700Z,20.33
2018-09-13T11:35:53.249Z,19.03
2018-09-13T11:38:21.864Z,13.83
2018-09-13T11:40:50.552Z,16.57
2018-09-13T11:43:19.029Z,17.77
2018-09-13T11:45:48.300Z,16.43
2018-09-13T11:48:16.921Z,16.67
2018-09-13T11:50:45.562Z,15.77
2018-09-13T11:53:14.127Z,13.13
2018-09-13T11:55:44.146Z,14.83
2018-09-13T11:58:14.952Z,12.67
2018-09-13T12:00:43.608Z,11.10
2018-09-13T12:03:13.203Z,10.80
2018-09-13T12:05:42.274Z,11.97
2018-09-13T12:08:10.801Z,13.17
2018-09-13T12:10:39.833Z,12.40
2018-09-13T12:13:17.871Z,10.73
2018-09-13T12:15:46.704Z,13.87
2018-09-13T12:18:15.289Z,10.00
2018-09-13T12:20:43.907Z,9.37
2018-09-13T12:23:12.519Z,12.00
2018-09-13T12:25:41.068Z,14.83
2018-09-13T12:28:09.660Z,13.57
2018-09-13T12:30:38.164Z,13.43
2018-09-13T12:33:06.644Z,13.27
2018-09-13T12:35:37.381Z,12.83
2018-09-13T12:38:08.156Z,13.60
2018-09-13T12:40:41.412Z,12.57
2018-09-13T12:43:13.125Z,17.03
2018-09-13T12:45:42.670Z,14.83
2018-09-13T12:48:11.228Z,13.17
2018-09-13T12:50:39.829Z,13.00
2018-09-13T12:53:08.397Z,12.13
2018-09-13T12:55:42.288Z,14.63
2018-09-13T12:58:10.759Z,12.90
2018-09-13T13:00:39.379Z,12.00
2018-09-13T13:03:07.927Z,12.80
2018-09-13T13:05:37.394Z,11.20
2018-09-13T13:08:05.903Z,9.70
2018-09-13T13:10:34.494Z,10.97
2018-09-13T13:13:03.003Z,8.53
2018-09-13T13:15:32.258Z,10.53
2018-09-13T13:18:00.833Z,13.33
2018-09-13T13:20:29.977Z,11.83
2018-09-13T13:22:59.357Z,14.47
2018-09-13T13:25:27.939Z,13.23
2018-09-13T13:27:57.281Z,11.83
2018-09-13T13:30:26.111Z,10.43
2018-09-13T13:32:54.746Z,11.00
2018-09-13T13:35:23.248Z,14.03
2018-09-13T13:37:52.330Z,11.60
2018-09-13T13:40:21.084Z,10.20
2018-09-13T13:42:49.655Z,9.47
2018-09-13T13:45:18.838Z,10.13
2018-09-13T13:47:47.335Z,12.60
2018-09-13T13:50:15.824Z,9.13
2018-09-13T13:52:45.015Z,10.03
2018-09-13T13:55:13.739Z,11.60
2018-09-13T13:57:42.326Z,13.00
2018-09-13T14:00:11.676Z,16.40
2018-09-13T14:02:40.338Z,16.77
2018-09-13T14:05:08.907Z,20.43
2018-09-13T14:07:37.440Z,18.67
2018-09-13T14:10:06.150Z,16.47
2018-09-13T14:12:34.738Z,19.17
2018-09-13T14:15:03.232Z,22.37
2018-09-13T14:17:31.751Z,18.20
2018-09-13T14:20:00.289Z,13.93
2018-09-13T14:22:29.104Z,19.43
2018-09-13T14:24:57.689Z,18.03
2018-09-13T14:27:26.255Z,18.77
2018-09-13T14:29:54.828Z,19.87
2018-09-13T14:32:23.969Z,18.77
2018-09-13T14:34:52.475Z,18.10
2018-09-13T14:37:20.967Z,18.27
2018-09-13T14:39:49.557Z,20.27
2018-09-13T14:42:18.091Z,19.30
2018-09-13T14:44:46.662Z,16.07
2018-09-13T14:47:15.165Z,17.77
2018-09-13T14:49:43.817Z,19.97
2018-09-13T14:52:12.363Z,19.20
2018-09-13T14:54:40.884Z,20.13
2018-09-13T14:57:09.712Z,20.50
2018-09-13T14:59:38.224Z,21.73
2018-09-13T15:02:06.751Z,17.60
2018-09-13T15:04:35.609Z,22.40
2018-09-13T15:07:04.365Z,19.00
2018-09-13T15:09:33.312Z,16.93
2018-09-13T15:12:01.964Z,15.73
2018-09-13T15:14:30.585Z,17.60
2018-09-13T15:16:59.133Z,15.70
2018-09-13T15:19:27.737Z,17.43
2018-09-13T15:21:56.384Z,19.57
2018-09-13T15:24:25.041Z,17.47
2018-09-13T15:26:53.518Z,18.00
2018-09-13T15:29:22.012Z,19.43
2018-09-13T15:31:51.335Z,20.73
2018-09-13T15:34:20.059Z,18.50
2018-09-13T15:36:48.584Z,21.33
2018-09-13T15:39:17.222Z,21.90
2018-09-13T15:41:45.737Z,17.13
2018-09-13T15:44:14.473Z,23.63
2018-09-13T15:46:42.999Z,20.30
2018-09-13T15:49:11.614Z,24.90
2018-09-13T15:51:40.115Z,24.17
2018-09-13T15:54:08.728Z,26.93
2018-09-13T15:56:37.368Z,26.43
2018-09-13T15:59:06.270Z,24.93
2018-09-13T16:01:34.816Z,22.63
2018-09-13T16:04:03.394Z,22.43
2018-09-13T16:06:32.661Z,30.87
2018-09-13T16:09:02.564Z,26.70
2018-09-13T16:11:32.009Z,24.37
2018-09-13T16:14:02.216Z,37.70
2018-09-13T16:16:34.825Z,34.00
2018-09-13T16:30:16.374Z,22.27
2018-09-13T16:32:46.900Z,26.93
2018-09-13T16:35:15.870Z,18.07
2018-09-13T16:37:53.533Z,19.13
2018-09-13T16:40:27.401Z,18.57
2018-09-13T16:43:01.778Z,20.90
2018-09-13T16:45:32.343Z,19.50
2018-09-13T16:48:03.432Z,18.47
2018-09-13T16:50:33.157Z,22.77
2018-09-13T16:53:03.958Z,18.17
2018-09-13T16:55:34.866Z,21.87
2018-09-13T16:58:04.402Z,19.97
2018-09-13T17:00:34.839Z,21.10
2018-09-13T17:03:04.970Z,22.63
2018-09-13T17:05:34.757Z,23.97
2018-09-13T17:08:08.622Z,21.10
2018-09-13T17:10:39.053Z,24.23
2018-09-13T17:13:09.160Z,22.43
2018-09-13T17:15:38.729Z,19.93
2018-09-13T17:18:11.629Z,20.93
2018-09-13T17:20:42.395Z,25.93
2018-09-13T17:23:15.216Z,22.80
2018-09-13T17:25:54.291Z,20.03
2018-09-13T17:28:29.192Z,23.97
2018-09-13T17:30:59.493Z,25.43
2018-09-13T17:33:34.756Z,23.80
2018-09-13T17:36:09.006Z,24.30
2018-09-13T17:38:45.824Z,25.40
2018-09-13T17:41:17.356Z,26.57
2018-09-13T17:44:01.220Z,23.10
2018-09-13T17:46:47.105Z,23.47
2018-09-13T17:49:35.711Z,23.37
2018-09-13T17:52:08.708Z,23.17
2018-09-13T17:57:43.591Z,26.90
2018-09-13T18:00:14.181Z,24.67
2018-09-13T18:02:43.358Z,25.20
2018-09-13T18:05:11.934Z,22.30
2018-09-13T18:07:40.531Z,22.60
2018-09-13T18:10:09.477Z,25.57
2018-09-13T18:12:38.203Z,24.33
2018-09-13T18:15:08.016Z,27.67
2018-09-13T18:17:36.814Z,28.60
2018-09-13T18:20:05.413Z,30.67
2018-09-13T18:22:34.404Z,34.67
2018-09-13T18:25:03.072Z,30.97
2018-09-13T18:27:31.842Z,32.90
2018-09-13T18:30:00.423Z,35.77
2018-09-13T18:32:29.065Z,39.67
2018-09-13T18:34:57.642Z,38.00
2018-09-13T18:37:26.147Z,36.57
2018-09-13T18:39:54.898Z,39.93
2018-09-13T18:42:24.743Z,36.90
2018-09-13T18:44:53.455Z,37.37
2018-09-13T18:47:21.972Z,38.70
2018-09-13T18:49:51.290Z,34.87
2018-09-13T18:52:20.625Z,34.40
2018-09-13T18:54:49.788Z,29.70
2018-09-13T18:57:19.095Z,35.30
2018-09-13T18:59:48.244Z,35.37
2018-09-13T19:02:16.756Z,34.27
2018-09-13T19:04:45.993Z,34.23
2018-09-13T19:07:15.103Z,35.23
2018-09-13T19:09:44.313Z,34.43
2018-09-13T19:12:13.195Z,35.60
2018-09-13T19:14:41.829Z,37.27
2018-09-13T19:17:10.409Z,41.73
2018-09-13T19:19:38.899Z,40.57
2018-09-13T19:22:08.356Z,40.13
2018-09-13T19:24:37.312Z,39.33
2018-09-13T19:27:05.906Z,38.10
2018-09-13T19:29:34.419Z,42.00
2018-09-13T19:32:02.929Z,39.20
2018-09-13T19:34:32.875Z,38.60
2018-09-13T19:37:02.200Z,39.13
2018-09-13T19:39:30.732Z,39.80
2018-09-13T19:42:00.042Z,39.67
2018-09-13T19:44:28.523Z,38.50
2018-09-13T19:46:58.334Z,37.20
2018-09-13T19:49:26.883Z,36.67
2018-09-13T19:51:55.470Z,40.03
2018-09-13T19:54:23.979Z,39.77
2018-09-13T19:56:52.763Z,39.20
2018-09-13T19:59:21.423Z,40.80
2018-09-13T20:01:51.434Z,36.53
2018-09-13T20:04:20.100Z,40.53
2018-09-13T20:06:48.952Z,35.63
2018-09-13T20:09:17.579Z,40.93
2018-09-13T20:11:47.444Z,45.03
2018-09-13T20:14:16.650Z,44.60
2018-09-13T20:16:45.319Z,42.83
2018-09-13T20:19:14.541Z,41.53
2018-09-13T20:21:43.176Z,42.23
2018-09-13T20:24:11.684Z,39.83
2018-09-13T20:26:40.303Z,45.03
2018-09-13T20:29:09.365Z,45.00
2018-09-13T20:31:37.916Z,49.03
2018-09-13T20:34:06.610Z,41.53
2018-09-13T20:36:35.175Z,45.93
2018-09-13T20:39:04.737Z,44.07
2018-09-13T20:41:34.066Z,41.93
2018-09-13T20:44:02.643Z,45.33
2018-09-13T20:47:01.571Z,41.20
2018-09-13T20:49:30.973Z,40.00
2018-09-13T20:51:59.548Z,38.13
2018-09-13T20:54:28.059Z,40.27
2018-09-13T20:56:57.630Z,41.43
2018-09-13T20:59:26.117Z,38.40
2018-09-13T21:01:55.894Z,40.17
2018-09-13T21:04:24.993Z,40.77
2018-09-13T21:06:53.631Z,38.97
2018-09-13T21:09:22.726Z,62.23
2018-09-13T21:11:51.281Z,39.83
2018-09-13T21:14:20.607Z,41.30
2018-09-13T21:16:49.745Z,48.17
2018-09-13T21:19:18.825Z,43.13
2018-09-13T21:21:48.412Z,41.60
2018-09-13T21:24:17.062Z,41.43
2018-09-13T21:26:45.575Z,44.20
2018-09-13T21:29:14.121Z,43.90
2018-09-13T21:31:42.963Z,43.03
2018-09-13T21:34:11.747Z,45.27
2018-09-13T21:36:40.266Z,42.77
2018-09-13T21:39:10.495Z,43.43
2018-09-13T21:41:38.967Z,39.40
2018-09-13T21:44:07.685Z,44.93
2018-09-13T21:46:36.159Z,48.50
2018-09-13T21:49:04.664Z,44.10
2018-09-13T21:51:33.199Z,45.73
2018-09-13T21:54:01.706Z,43.10
2018-09-13T21:56:30.257Z,44.83
2018-09-13T21:58:58.752Z,42.47
2018-09-13T22:01:27.299Z,45.93
2018-09-13T22:03:55.875Z,43.53
2018-09-13T22:06:25.083Z,39.87
2018-09-13T22:08:54.035Z,45.53
2018-09-13T22:11:22.592Z,38.10
2018-09-13T22:13:51.692Z,36.90
2018-09-13T22:16:20.231Z,39.90
2018-09-13T22:18:48.782Z,41.83
2018-09-13T22:21:17.575Z,35.60
2018-09-13T22:23:46.087Z,37.93
2018-09-13T22:26:14.855Z,38.57
2018-09-13T22:28:43.359Z,37.17
2018-09-13T22:31:11.879Z,38.00
2018-09-13T22:33:40.416Z,39.97
2018-09-13T22:36:08.887Z,40.97
2018-09-13T22:38:37.707Z,38.53
2018-09-13T22:41:06.347Z,40.83
2018-09-13T22:43:40.076Z,35.47
2018-09-13T22:46:08.578Z,34.13
2018-09-13T22:48:37.195Z,35.70
2018-09-13T22:51:05.717Z,34.43
2018-09-13T22:53:35.005Z,36.40
2018-09-13T22:56:03.424Z,36.73
2018-09-13T22:58:32.652Z,41.97
2018-09-13T23:01:01.264Z,35.97
2018-09-13T23:03:30.437Z,35.00
2018-09-13T23:05:58.935Z,35.17
2018-09-13T23:08:27.521Z,35.17
2018-09-13T23:10:56.157Z,39.50
2018-09-13T23:13:24.980Z,35.10
2018-09-13T23:15:53.574Z,38.70
2018-09-13T23:18:22.096Z,35.90
2018-09-13T23:20:50.704Z,38.13
2018-09-13T23:23:19.432Z,35.77
2018-09-13T23:25:47.992Z,34.47
2018-09-13T23:28:16.717Z,37.50
2018-09-13T23:30:46.255Z,37.37
2018-09-13T23:33:14.927Z,37.10
2018-09-13T23:35:43.450Z,42.23
2018-09-13T23:38:11.959Z,38.60
2018-09-13T23:40:41.110Z,35.63
2018-09-13T23:43:09.612Z,40.93
2018-09-13T23:45:38.116Z,39.93
2018-09-13T23:48:06.608Z,36.53
2018-09-13T23:50:35.140Z,38.73
2018-09-13T23:53:03.694Z,35.70
2018-09-13T23:55:32.179Z,34.73
2018-09-13T23:58:01.539Z,37.93
